Impacts METAR Board
IDs:

KELA - Eagle Lake Arpt, TX, US

Updated at: 0000 UTC 30 May 2020
Potential Impact None Slight Moderate High
Time 29/12Z 29/13Z 29/14Z 29/15Z 29/16Z 29/17Z 29/18Z 29/19Z 29/20Z 29/21Z 29/22Z 29/23Z 30/00Z
Temp73 75 79 81 83 84 86 87 87 87 88 86 84
Dewpt72 74 73 70 70 69 69 67 68 67 67 67 68
Altim30.04 30.05 30.05 30.06 30.06 30.06 30.07 30.07 30.06 30.04 30.03 30.01 30.02
VIS5 10 10 10 10 10 10 10 10 10 10 10 10
CIG-- -- -- -- -- -- -- -- -- 60 -- -- --
CoverCLRCLRCLRCLRCLRCLRSCTSCTSCTBKNSCTSCTCLR
FltCatMVFRVFRVFRVFRVFRVFRVFRVFRVFRVFRVFRVFRVFR
WXBR------------------------
WDir10102020360103603603020202020
WSpd4 5 9 12 10 12 7 10 12 12 13 11 8
WGst-- -- -- -- 16 17 17 16 17 17 19 16 15
Raw hourly METARs
KELA 291155Z AUTO 01004KT 5SM BR CLR 23/22 A3004 RMK AO2 T02250220 10245 20221
KELA 291255Z AUTO 01005KT 10SM CLR 24/23 A3005 RMK AO2 T02410232
KELA 291355Z AUTO 02009KT 10SM CLR 26/23 A3005 RMK AO2 T02610228
KELA 291455Z AUTO 02012KT 10SM CLR 27/21 A3006 RMK AO2 T02740213
KELA 291555Z AUTO 36010G16KT 10SM CLR 28/21 A3006 RMK AO2 T02810211
KELA 291655Z AUTO 01012G17KT 10SM CLR 29/21 A3006 RMK AO2 T02900206
KELA 291755Z AUTO 36007G17KT 10SM SCT039 30/20 A3007 RMK AO2 T03000204 10300 20225
KELA 291855Z AUTO 36010G16KT 10SM SCT045 30/20 A3007 RMK AO2 T03040197
KELA 291955Z AUTO 03012G17KT 10SM SCT047 SCT055 31/20 A3006 RMK AO2 T03050198
KELA 292055Z AUTO 02012G17KT 10SM SCT050 BKN060 31/20 A3004 RMK AO2 T03050197
KELA 292155Z AUTO 02013G19KT 10SM SCT050 31/20 A3003 RMK AO2 T03100196
KELA 292255Z AUTO 02011G16KT 10SM SCT055 SCT065 30/20 A3001 RMK AO2 T03000197
KELA 292355Z AUTO 02008G15KT 10SM CLR 29/20 A3002 RMK AO2 T02880201 10314 20288